Time;durP1;ratioP1;P1;durP2;ratioP2;P2;SDS_P1;SDS_P2;PMS_P1;PMS_P2;Temp;Humidity;BMP_temperature;BMP_pressure;BME280_temperature;BME280_humidity;BME280_pressure;Samples;Min_cycle;Max_cycle;Signal;HPM_P1;HPM_P2
2023/01/01 00:02:34;;;;;;;;;;;;;;;3.09;100.00;101426.13;5567837;32;33889;-71
2023/01/01 00:05:42;;;;;;;;;;;;;;;3.05;100.00;101417.59;5567395;32;35027;-71
2023/01/01 00:08:48;;;;;;;;;;;;;;;3.03;100.00;101417.69;5547038;32;33079;-71
2023/01/01 00:11:56;;;;;;;;;;;;;;;3.05;100.00;101423.69;5548152;32;35098;-72
2023/01/01 00:15:03;;;;;;;;;;;;;;;3.04;100.00;101427.25;5548069;32;34740;-71
2023/01/01 00:18:06;;;;;;;;;;;;;;;3.02;100.00;101423.87;5549666;32;34065;-72
2023/01/01 00:21:13;;;;;;;;;;;;;;;3.00;100.00;101436.22;5565274;32;34460;-71
2023/01/01 00:24:20;;;;;;;;;;;;;;;2.98;100.00;101429.41;5566381;32;33194;-72
2023/01/01 00:27:24;;;;;;;;;;;;;;;2.98;100.00;101432.03;5557420;32;34645;-72
2023/01/01 00:30:30;;;;;;;;;;;;;;;2.99;100.00;101426.69;5557468;32;34270;-71
2023/01/01 00:33:34;;;;;;;;;;;;;;;3.05;100.00;101428.06;5559740;32;34291;-71
2023/01/01 00:36:41;;;;;;;;;;;;;;;3.08;100.00;101433.16;5567154;32;34892;-71
2023/01/01 00:39:44;;;;;;;;;;;;;;;3.09;100.00;101426.13;5567222;32;34270;-72
2023/01/01 00:42:48;;;;;;;;;;;;;;;3.08;100.00;101424.44;5567307;32;34249;-71
2023/01/01 00:45:55;;;;;;;;;;;;;;;3.10;100.00;101428.62;5567563;32;33936;-71
2023/01/01 00:49:01;;;;;;;;;;;;;;;3.09;100.00;101434.00;5566190;32;34192;-72
2023/01/01 00:52:05;;;;;;;;;;;;;;;3.10;100.00;101419.97;5566005;32;33157;-71
2023/01/01 00:55:11;;;;;;;;;;;;;;;3.15;100.00;101426.56;5566542;32;35350;-72
2023/01/01 00:58:19;;;;;;;;;;;;;;;3.12;100.00;101428.56;5553150;32;33879;-72
2023/01/01 01:01:33;;;;;;;;;;;;;;;3.11;100.00;101432.94;5566796;32;34648;-71
2023/01/01 01:04:40;;;;;;;;;;;;;;;3.09;100.00;101429.59;5565811;32;34475;-70
2023/01/01 01:07:48;;;;;;;;;;;;;;;3.08;100.00;101430.53;5566486;32;35042;-70
2023/01/01 01:11:09;;;;;;;;;;;;;;;3.11;100.00;101425.09;5567616;32;34246;-70
2023/01/01 01:14:15;;;;;;;;;;;;;;;3.19;100.00;101425.47;5569166;32;34042;-70
2023/01/01 01:17:22;;;;;;;;;;;;;;;3.24;100.00;101441.75;5569065;32;34259;-71
2023/01/01 01:20:30;;;;;;;;;;;;;;;3.31;100.00;101437.81;5569196;32;34859;-70
2023/01/01 01:23:36;;;;;;;;;;;;;;;3.26;100.00;101436.41;5569010;32;34797;-70
2023/01/01 01:26:41;;;;;;;;;;;;;;;3.26;100.00;101432.00;5568878;32;34326;-70
2023/01/01 01:29:45;;;;;;;;;;;;;;;3.13;100.00;101432.88;5567827;32;34322;-71
2023/01/01 01:32:51;;;;;;;;;;;;;;;3.18;100.00;101442.12;5569159;32;33928;-71
2023/01/01 01:35:57;;;;;;;;;;;;;;;3.19;100.00;101440.34;5568951;32;34358;-71
2023/01/01 01:39:05;;;;;;;;;;;;;;;3.13;100.00;101440.72;5568104;32;34512;-71
2023/01/01 01:42:17;;;;;;;;;;;;;;;2.99;100.00;101439.81;5568173;32;34999;-72
2023/01/01 01:45:26;;;;;;;;;;;;;;;2.99;100.00;101426.69;5568973;32;34346;-71
2023/01/01 01:48:41;;;;;;;;;;;;;;;3.02;100.00;101425.66;5568857;32;34282;-70
2023/01/01 01:51:48;;;;;;;;;;;;;;;2.90;100.00;101432.50;5568109;32;34170;-70
2023/01/01 01:54:53;;;;;;;;;;;;;;;2.95;100.00;101427.78;5567480;32;32946;-70
2023/01/01 01:57:56;;;;;;;;;;;;;;;2.80;100.00;101423.50;5567863;32;34247;-70
2023/01/01 02:01:02;;;;;;;;;;;;;;;2.76;100.00;101432.47;5568905;32;34524;-70
2023/01/01 02:04:06;;;;;;;;;;;;;;;2.80;100.00;101435.78;5568410;32;34303;-70
2023/01/01 02:07:11;;;;;;;;;;;;;;;2.82;100.00;101434.72;5568062;32;34711;-70
2023/01/01 02:10:15;;;;;;;;;;;;;;;3.01;100.00;101430.03;5567865;32;34942;-71
2023/01/01 02:13:18;;;;;;;;;;;;;;;2.89;100.00;101425.56;5567882;32;34662;-71
2023/01/01 02:16:43;;;;;;;;;;;;;;;2.98;100.00;101427.63;5567418;32;34707;-70
2023/01/01 02:20:07;;;;;;;;;;;;;;;2.85;100.00;101431.94;5568011;32;34184;-70
2023/01/01 02:23:32;;;;;;;;;;;;;;;2.91;100.00;101431.53;5555694;32;34274;-71
2023/01/01 02:26:50;;;;;;;;;;;;;;;2.91;100.00;101428.06;5556557;32;34700;-71
2023/01/01 02:29:59;;;;;;;;;;;;;;;2.95;100.00;101442.72;5567902;32;34150;-71
2023/01/01 02:33:08;;;;;;;;;;;;;;;2.97;100.00;101446.06;5568267;32;34356;-70
2023/01/01 02:36:12;;;;;;;;;;;;;;;2.93;100.00;101449.81;5567825;32;34591;-70
2023/01/01 02:39:18;;;;;;;;;;;;;;;2.97;100.00;101462.62;5567963;32;34100;-71
2023/01/01 02:42:26;;;;;;;;;;;;;;;3.05;100.00;101454.28;5567761;32;34588;-70
2023/01/01 02:45:32;;;;;;;;;;;;;;;3.12;100.00;101454.78;5541962;32;33202;-71
2023/01/01 02:48:42;;;;;;;;;;;;;;;3.05;100.00;101456.91;5568333;32;34906;-70
2023/01/01 02:52:00;;;;;;;;;;;;;;;3.02;100.00;101450.09;5568379;32;34274;-70
2023/01/01 02:55:29;;;;;;;;;;;;;;;2.88;100.00;101451.88;5554913;32;34400;-71
2023/01/01 03:02:03;;;;;;;;;;;;;;;2.79;100.00;101439.31;5568338;32;34140;-70
2023/01/01 03:05:09;;;;;;;;;;;;;;;2.78;100.00;101448.09;5567881;32;34668;-70
2023/01/01 03:08:18;;;;;;;;;;;;;;;2.73;100.00;101440.53;5547870;32;34247;-71
2023/01/01 03:11:32;;;;;;;;;;;;;;;2.85;100.00;101441.56;5547976;32;34233;-72
2023/01/01 03:14:45;;;;;;;;;;;;;;;2.77;100.00;101430.69;5548642;32;34981;-71
2023/01/01 03:18:04;;;;;;;;;;;;;;;2.76;100.00;101435.09;5547264;32;34912;-71
2023/01/01 03:21:10;;;;;;;;;;;;;;;2.86;100.00;101433.59;5547897;32;34679;-71
2023/01/01 03:24:23;;;;;;;;;;;;;;;2.91;100.00;101446.41;5548581;32;34229;-72
2023/01/01 03:27:34;;;;;;;;;;;;;;;2.80;100.00;101443.63;5548629;32;34334;-71
2023/01/01 03:30:44;;;;;;;;;;;;;;;2.86;100.00;101438.84;5547830;32;34699;-71
2023/01/01 03:33:56;;;;;;;;;;;;;;;2.85;100.00;101439.81;5547281;32;34268;-71
2023/01/01 03:37:11;;;;;;;;;;;;;;;2.84;100.00;101427.63;5547761;32;34249;-71
2023/01/01 03:40:18;;;;;;;;;;;;;;;2.80;100.00;101425.28;5548510;32;34755;-71
2023/01/01 03:43:44;;;;;;;;;;;;;;;2.72;100.00;101430.13;5523118;32;33208;-72
2023/01/01 03:46:53;;;;;;;;;;;;;;;2.66;100.00;101423.50;5547299;32;34517;-71
2023/01/01 03:49:59;;;;;;;;;;;;;;;2.71;100.00;101426.66;5548192;32;34306;-71
2023/01/01 03:53:15;;;;;;;;;;;;;;;2.74;100.00;101431.72;5548485;32;34706;-72
2023/01/01 03:56:39;;;;;;;;;;;;;;;2.80;100.00;101436.63;5549487;32;34629;-71
2023/01/01 04:00:06;;;;;;;;;;;;;;;2.86;100.00;101425.75;5547998;32;34228;-72
2023/01/01 04:03:18;;;;;;;;;;;;;;;2.90;100.00;101424.63;5548092;32;34415;-71
2023/01/01 04:06:27;;;;;;;;;;;;;;;3.01;100.00;101431.81;5504950;32;1416345;-72
2023/01/01 04:09:36;;;;;;;;;;;;;;;2.98;100.00;101435.50;5539879;32;35018;-71
2023/01/01 04:12:45;;;;;;;;;;;;;;;2.93;100.00;101432.31;5528640;32;34384;-72
2023/01/01 04:15:56;;;;;;;;;;;;;;;2.85;100.00;101423.22;5528557;32;34440;-71
2023/01/01 04:19:06;;;;;;;;;;;;;;;2.84;100.00;101422.38;5528297;32;34220;-73
2023/01/01 04:22:16;;;;;;;;;;;;;;;3.07;100.00;101426.22;5528417;32;34700;-71
2023/01/01 04:25:25;;;;;;;;;;;;;;;2.92;100.00;101428.00;5528670;32;34270;-71
2023/01/01 04:28:32;;;;;;;;;;;;;;;2.98;100.00;101435.50;5528547;32;34160;-71
2023/01/01 04:31:39;;;;;;;;;;;;;;;2.99;100.00;101431.94;5528507;32;34927;-72
2023/01/01 04:34:46;;;;;;;;;;;;;;;2.97;100.00;101431.19;5528541;32;33985;-72
2023/01/01 04:37:54;;;;;;;;;;;;;;;3.11;100.00;101434.72;5528700;32;34674;-72
2023/01/01 04:41:04;;;;;;;;;;;;;;;3.01;100.00;101437.91;5527617;32;34886;-72
2023/01/01 04:44:14;;;;;;;;;;;;;;;3.10;100.00;101428.62;5528169;32;34924;-73
2023/01/01 04:47:25;;;;;;;;;;;;;;;3.06;100.00;101430.63;5527398;32;34236;-71
2023/01/01 04:50:34;;;;;;;;;;;;;;;3.06;100.00;101430.63;5528001;32;34288;-72
2023/01/01 04:53:40;;;;;;;;;;;;;;;3.03;100.00;101433.44;5527440;32;33776;-72
2023/01/01 04:56:49;;;;;;;;;;;;;;;2.89;100.00;101441.28;5531575;32;33980;-72
2023/01/01 04:59:59;;;;;;;;;;;;;;;2.84;100.00;101443.34;5547338;32;34228;-71
2023/01/01 05:03:07;;;;;;;;;;;;;;;2.94;100.00;101441.00;5546580;32;33995;-72
2023/01/01 05:06:14;;;;;;;;;;;;;;;3.13;100.00;101443.34;5547228;32;34826;-72
2023/01/01 05:09:26;;;;;;;;;;;;;;;3.05;100.00;101443.81;5561098;32;32936;-73
2023/01/01 05:12:34;;;;;;;;;;;;;;;2.97;100.00;101446.91;5566647;32;34714;-72
2023/01/01 05:15:43;;;;;;;;;;;;;;;2.92;100.00;101445.50;5566596;32;34121;-72
2023/01/01 05:18:51;;;;;;;;;;;;;;;2.95;100.00;101440.09;5566552;32;34492;-72
2023/01/01 05:21:57;;;;;;;;;;;;;;;3.00;100.00;101436.22;5565613;32;34390;-72
2023/01/01 05:25:07;;;;;;;;;;;;;;;3.08;100.00;101438.41;5565291;32;33705;-72
2023/01/01 05:28:15;;;;;;;;;;;;;;;3.12;100.00;101436.41;5566647;32;34818;-72
2023/01/01 05:31:24;;;;;;;;;;;;;;;3.12;100.00;101444.28;5566181;32;34297;-72
2023/01/01 05:34:32;;;;;;;;;;;;;;;3.05;100.00;101434.16;5565345;32;34079;-71
2023/01/01 05:37:35;;;;;;;;;;;;;;;3.10;100.00;101440.94;5566155;32;34633;-71
2023/01/01 05:40:44;;;;;;;;;;;;;;;3.07;100.00;101452.44;5565396;32;33877;-71
2023/01/01 05:43:52;;;;;;;;;;;;;;;3.11;100.00;101448.69;5566176;32;34621;-71
2023/01/01 05:47:00;;;;;;;;;;;;;;;3.04;100.00;101452.62;5565181;32;35508;-72
2023/01/01 05:50:12;;;;;;;;;;;;;;;3.04;100.00;101453.47;5565839;32;34321;-71
2023/01/01 05:53:19;;;;;;;;;;;;;;;3.03;100.00;101458.81;5564876;32;34466;-71
2023/01/01 05:56:26;;;;;;;;;;;;;;;3.14;100.00;101468.63;5566686;32;34470;-71
2023/01/01 05:59:34;;;;;;;;;;;;;;;3.17;100.00;101474.53;5568893;32;34427;-71
2023/01/01 06:02:40;;;;;;;;;;;;;;;3.08;100.00;101472.47;5568822;32;34732;-71
2023/01/01 06:05:46;;;;;;;;;;;;;;;3.11;100.00;101468.81;5568905;32;35276;-72
2023/01/01 06:08:54;;;;;;;;;;;;;;;2.97;100.00;101462.62;5580270;31;34552;-73
2023/01/01 06:12:01;;;;;;;;;;;;;;;3.04;100.00;101476.22;5588651;31;33993;-72
2023/01/01 06:15:08;;;;;;;;;;;;;;;3.00;100.00;101490.47;5574855;31;34724;-73
2023/01/01 06:18:19;;;;;;;;;;;;;;;3.07;100.00;101497.00;5575034;31;35101;-73
2023/01/01 06:21:28;;;;;;;;;;;;;;;3.11;100.00;101508.97;5588383;31;34226;-73
2023/01/01 06:24:37;;;;;;;;;;;;;;;3.07;100.00;101517.97;5588216;31;35639;-72
2023/01/01 06:27:43;;;;;;;;;;;;;;;3.13;100.00;101512.38;5588211;31;34607;-72
2023/01/01 06:30:52;;;;;;;;;;;;;;;3.16;100.00;101513.94;5588130;31;34078;-73
2023/01/01 06:33:58;;;;;;;;;;;;;;;3.04;100.00;101515.53;5574553;31;35106;-72
2023/01/01 06:37:06;;;;;;;;;;;;;;;3.10;100.00;101530.06;5574790;31;34152;-72
2023/01/01 06:40:14;;;;;;;;;;;;;;;3.11;100.00;101529.94;5588019;31;34889;-73
2023/01/01 06:43:25;;;;;;;;;;;;;;;3.03;100.00;101525.19;5588018;31;34999;-72
2023/01/01 06:46:33;;;;;;;;;;;;;;;3.07;100.00;101528.47;5561193;31;34223;-72
2023/01/01 06:49:41;;;;;;;;;;;;;;;3.07;100.00;101533.69;5573680;31;33070;-72
2023/01/01 06:52:48;;;;;;;;;;;;;;;3.32;100.00;101538.31;5587935;31;34200;-73
2023/01/01 06:55:56;;;;;;;;;;;;;;;3.29;100.00;101533.25;5587816;31;34536;-73
2023/01/01 06:59:04;;;;;;;;;;;;;;;3.28;100.00;101536.81;5567244;31;34177;-72
2023/01/01 07:02:11;;;;;;;;;;;;;;;3.20;100.00;101533.78;5587950;31;34171;-72
2023/01/01 07:05:17;;;;;;;;;;;;;;;3.21;100.00;101519.75;5587869;31;34180;-73
2023/01/01 07:08:23;;;;;;;;;;;;;;;3.19;100.00;101516.41;5559438;31;32879;-72
2023/01/01 07:11:31;;;;;;;;;;;;;;;3.22;100.00;101521.44;5587601;31;34377;-73
2023/01/01 07:14:39;;;;;;;;;;;;;;;3.19;100.00;101522.50;5581406;31;34517;-73
2023/01/01 07:17:46;;;;;;;;;;;;;;;3.34;100.00;101526.78;5554747;32;34111;-71
2023/01/01 07:20:55;;;;;;;;;;;;;;;3.47;100.00;101527.72;5555126;32;34331;-71
2023/01/01 07:24:03;;;;;;;;;;;;;;;3.32;100.00;101531.28;5568166;32;34198;-72
2023/01/01 07:27:14;;;;;;;;;;;;;;;3.31;100.00;101524.34;5568061;32;35070;-73
2023/01/01 07:30:20;;;;;;;;;;;;;;;3.45;100.00;101526.13;5553511;32;35784;-73
2023/01/01 07:33:29;;;;;;;;;;;;;;;3.55;100.00;101532.50;5568480;32;34119;-72
2023/01/01 07:36:37;;;;;;;;;;;;;;;3.54;100.00;101530.81;5554595;32;34266;-71
2023/01/01 07:39:43;;;;;;;;;;;;;;;3.58;100.00;101532.31;5553785;32;33040;-71
2023/01/01 07:42:52;;;;;;;;;;;;;;;3.62;100.00;101533.81;5567822;32;34866;-73
2023/01/01 07:45:59;;;;;;;;;;;;;;;3.56;100.00;101523.69;5567959;32;34544;-72
2023/01/01 07:49:10;;;;;;;;;;;;;;;3.71;100.00;101543.75;5553806;32;35700;-72
2023/01/01 07:52:20;;;;;;;;;;;;;;;3.65;100.00;101533.62;5554616;32;34258;-73
2023/01/01 07:55:32;;;;;;;;;;;;;;;3.67;100.00;101549.28;5567786;32;34937;-72
2023/01/01 07:58:41;;;;;;;;;;;;;;;3.66;100.00;101555.44;5554463;32;34099;-71
2023/01/01 08:01:48;;;;;;;;;;;;;;;3.75;100.00;101563.59;5567787;32;33713;-72
2023/01/01 08:04:56;;;;;;;;;;;;;;;3.80;100.00;101568.56;5554351;32;34640;-71
2023/01/01 08:08:01;;;;;;;;;;;;;;;3.91;100.00;101571.38;5567406;32;34346;-72
2023/01/01 08:11:10;;;;;;;;;;;;;;;3.87;100.00;101567.25;5553330;32;35673;-71
2023/01/01 08:14:17;;;;;;;;;;;;;;;4.02;100.00;101575.94;5540599;32;33404;-72
2023/01/01 08:17:25;;;;;;;;;;;;;;;3.86;100.00;101584.78;5567610;32;34039;-72
2023/01/01 08:20:33;;;;;;;;;;;;;;;3.83;100.00;101584.09;5553975;32;34757;-72
2023/01/01 08:23:40;;;;;;;;;;;;;;;3.73;100.00;101596.09;5554201;32;34627;-71
2023/01/01 08:26:49;;;;;;;;;;;;;;;3.94;100.00;101600.88;5541643;32;32919;-73
2023/01/01 08:29:57;;;;;;;;;;;;;;;3.96;100.00;101606.06;5553960;32;34881;-72
2023/01/01 08:33:04;;;;;;;;;;;;;;;3.94;100.00;101594.78;5567393;32;34217;-72
2023/01/01 08:36:12;;;;;;;;;;;;;;;4.00;100.00;101602.28;5567290;32;34407;-72
2023/01/01 08:39:19;;;;;;;;;;;;;;;4.05;100.00;101596.75;5553357;32;34805;-72
2023/01/01 08:42:28;;;;;;;;;;;;;;;4.26;100.00;101606.72;5567436;32;33827;-73
2023/01/01 08:45:37;;;;;;;;;;;;;;;4.34;100.00;101601.84;5540787;32;33259;-72
2023/01/01 08:48:47;;;;;;;;;;;;;;;4.04;100.00;101609.03;5556032;32;34103;-72
2023/01/01 08:51:58;;;;;;;;;;;;;;;4.27;100.00;101603.16;5553959;32;34614;-72
2023/01/01 08:55:08;;;;;;;;;;;;;;;4.42;100.00;101593.47;5554050;32;33641;-72
2023/01/01 08:58:15;;;;;;;;;;;;;;;4.57;100.00;101600.38;5540015;32;34212;-73
2023/01/01 09:01:26;;;;;;;;;;;;;;;4.71;100.00;101592.41;5553168;32;34311;-72
2023/01/01 09:04:33;;;;;;;;;;;;;;;4.60;100.00;101594.91;5566869;32;34942;-73
2023/01/01 09:07:40;;;;;;;;;;;;;;;4.74;100.00;101596.66;5553314;32;34199;-73
2023/01/01 09:10:46;;;;;;;;;;;;;;;4.85;100.00;101574.88;5552596;32;32790;-74
2023/01/01 09:13:54;;;;;;;;;;;;;;;5.06;100.00;101581.34;5552435;32;32963;-72
2023/01/01 09:16:59;;;;;;;;;;;;;;;5.28;100.00;101605.25;5552656;32;34657;-72
2023/01/01 09:20:11;;;;;;;;;;;;;;;5.07;100.00;101610.19;5566502;32;33982;-73
2023/01/01 09:23:21;;;;;;;;;;;;;;;4.89;100.00;101603.50;5553475;32;34065;-72
2023/01/01 09:26:29;;;;;;;;;;;;;;;4.84;100.00;101607.41;5552273;32;33621;-73
2023/01/01 09:29:35;;;;;;;;;;;;;;;4.66;100.00;101606.78;5568778;31;34066;-72
2023/01/01 09:32:43;;;;;;;;;;;;;;;4.40;100.00;101610.28;5573702;31;34871;-72
2023/01/01 09:35:48;;;;;;;;;;;;;;;4.37;100.00;101606.06;5588185;31;34332;-72
2023/01/01 09:38:57;;;;;;;;;;;;;;;4.33;100.00;101612.44;5560652;31;34437;-72
2023/01/01 09:42:05;;;;;;;;;;;;;;;4.30;100.00;101599.53;5575011;31;34693;-72
2023/01/01 09:45:14;;;;;;;;;;;;;;;4.28;100.00;101601.38;5573109;31;33609;-72
2023/01/01 09:48:24;;;;;;;;;;;;;;;4.40;100.00;101594.53;5574053;31;34076;-71
2023/01/01 09:51:34;;;;;;;;;;;;;;;4.37;100.00;101595.53;5588339;31;34709;-72
2023/01/01 09:54:53;;;;;;;;;;;;;;;4.46;100.00;101594.94;5562086;32;34332;-71
2023/01/01 09:57:59;;;;;;;;;;;;;;;4.58;100.00;101591.53;5554388;32;34707;-72
2023/01/01 10:01:25;;;;;;;;;;;;;;;4.76;100.00;101600.00;5555093;32;34877;-72
2023/01/01 10:04:32;;;;;;;;;;;;;;;4.58;100.00;101599.44;5554375;32;33556;-72
2023/01/01 10:07:54;;;;;;;;;;;;;;;4.53;100.00;101598.03;5541698;32;33127;-72
2023/01/01 10:11:20;;;;;;;;;;;;;;;4.92;100.00;101611.19;5554892;32;34392;-73
2023/01/01 10:14:35;;;;;;;;;;;;;;;5.23;100.00;101618.72;5543475;32;34019;-73
2023/01/01 10:17:55;;;;;;;;;;;;;;;5.21;100.00;101615.38;5555332;32;34950;-73
2023/01/01 10:21:20;;;;;;;;;;;;;;;4.69;100.00;101614.50;5568322;32;33901;-73
2023/01/01 10:24:46;;;;;;;;;;;;;;;4.57;100.00;101599.50;5554161;32;32872;-73
2023/01/01 10:27:58;;;;;;;;;;;;;;;4.51;100.00;101589.41;5554969;32;34024;-72
2023/01/01 10:31:15;;;;;;;;;;;;;;;4.72;100.00;101599.37;5541836;32;34112;-73
2023/01/01 10:34:25;;;;;;;;;;;;;;;5.00;100.00;101584.38;5555339;32;33963;-73
2023/01/01 10:37:35;;;;;;;;;;;;;;;5.01;100.00;101581.66;5568286;32;34918;-72
2023/01/01 10:40:42;;;;;;;;;;;;;;;5.45;100.00;101580.44;5554862;32;34657;-72
2023/01/01 10:43:50;;;;;;;;;;;;;;;5.81;100.00;101579.66;5554145;32;34638;-72
2023/01/01 10:47:01;;;;;;;;;;;;;;;5.99;100.00;101588.94;5555219;32;34331;-72
2023/01/01 10:50:10;;;;;;;;;;;;;;;5.96;100.00;101578.59;5566580;32;34137;-71
2023/01/01 10:53:20;;;;;;;;;;;;;;;5.97;100.00;101577.66;5554835;32;34226;-72
2023/01/01 10:56:38;;;;;;;;;;;;;;;6.00;100.00;101573.00;5554802;32;34348;-72
2023/01/01 10:59:46;;;;;;;;;;;;;;;6.18;100.00;101570.84;5567170;32;32876;-71
2023/01/01 11:03:15;;;;;;;;;;;;;;;6.23;100.00;101566.09;5540414;32;33658;-72
2023/01/01 11:06:24;;;;;;;;;;;;;;;6.22;100.00;101558.28;5554853;32;34050;-72
2023/01/01 11:09:38;;;;;;;;;;;;;;;6.45;100.00;101550.38;5567856;32;34037;-71
2023/01/01 11:13:00;;;;;;;;;;;;;;;6.72;100.00;101533.50;5557365;32;34354;-71
2023/01/01 11:16:12;;;;;;;;;;;;;;;6.83;100.00;101515.88;5555143;32;34204;-72
2023/01/01 11:19:24;;;;;;;;;;;;;;;7.15;100.00;101507.31;5568090;32;34163;-72
2023/01/01 11:22:35;;;;;;;;;;;;;;;7.67;100.00;101498.81;5553906;32;34193;-72
2023/01/01 11:25:55;;;;;;;;;;;;;;;7.40;100.00;101505.31;5568022;32;34837;-71
2023/01/01 11:29:05;;;;;;;;;;;;;;;7.87;100.00;101505.97;5567874;32;34679;-72
2023/01/01 11:32:17;;;;;;;;;;;;;;;7.18;100.00;101521.13;5567459;32;35215;-71
2023/01/01 11:35:26;;;;;;;;;;;;;;;7.09;100.00;101521.81;5554722;32;33187;-71
2023/01/01 11:38:33;;;;;;;;;;;;;;;6.85;100.00;101519.25;5567994;32;33810;-72
2023/01/01 11:41:46;;;;;;;;;;;;;;;7.18;100.00;101526.41;5553567;32;34038;-72
2023/01/01 11:45:01;;;;;;;;;;;;;;;7.20;100.00;101519.22;5554438;32;34875;-72
2023/01/01 11:48:13;;;;;;;;;;;;;;;7.28;100.00;101510.69;5568149;32;33584;-72
2023/01/01 11:51:30;;;;;;;;;;;;;;;7.19;100.00;101506.12;5554485;32;34203;-72
2023/01/01 11:54:38;;;;;;;;;;;;;;;7.10;100.00;101509.47;5567543;32;34781;-72
2023/01/01 11:57:54;;;;;;;;;;;;;;;6.72;100.00;101507.97;5541407;32;33140;-71
2023/01/01 12:01:05;;;;;;;;;;;;;;;6.56;100.00;101491.59;5554049;32;34943;-72
2023/01/01 12:04:25;;;;;;;;;;;;;;;6.40;100.00;101486.62;5553769;32;34660;-71
2023/01/01 12:07:36;;;;;;;;;;;;;;;6.25;100.00;101482.47;5554891;32;34977;-72
2023/01/01 12:10:54;;;;;;;;;;;;;;;6.17;100.00;101481.37;5567535;32;35019;-71
2023/01/01 12:14:13;;;;;;;;;;;;;;;6.20;100.00;101486.41;5553865;32;34552;-71
2023/01/01 12:17:25;;;;;;;;;;;;;;;6.20;100.00;101481.97;5566501;32;34132;-71
2023/01/01 12:20:36;;;;;;;;;;;;;;;6.22;100.00;101481.88;5553798;32;34210;-71
2023/01/01 12:23:44;;;;;;;;;;;;;;;6.53;100.00;101489.22;5540050;32;35336;-70
2023/01/01 12:26:55;;;;;;;;;;;;;;;6.56;100.00;101483.69;5566911;32;34291;-71
2023/01/01 12:30:19;;;;;;;;;;;;;;;6.42;100.00;101482.09;5567152;32;34787;-71
2023/01/01 12:33:40;;;;;;;;;;;;;;;6.68;100.00;101476.66;5567025;32;34364;-71
2023/01/01 12:36:48;;;;;;;;;;;;;;;6.85;100.00;101465.66;5553136;32;34910;-71
2023/01/01 12:39:58;;;;;;;;;;;;;;;7.00;100.00;101451.31;5567081;32;34415;-71
2023/01/01 12:43:10;;;;;;;;;;;;;;;7.11;100.00;101459.22;5552579;32;33551;-70
2023/01/01 12:46:36;;;;;;;;;;;;;;;7.25;100.00;101463.44;5566813;32;34372;-71
2023/01/01 12:49:51;;;;;;;;;;;;;;;6.83;100.00;101462.28;5566905;32;34747;-73
2023/01/01 12:52:56;;;;;;;;;;;;;;;6.86;100.00;101472.62;5566475;32;34992;-71
2023/01/01 12:56:05;;;;;;;;;;;;;;;6.95;100.00;101477.19;5552898;32;33825;-71
2023/01/01 12:59:17;;;;;;;;;;;;;;;6.80;100.00;101486.28;5552919;32;33938;-73
2023/01/01 13:02:28;;;;;;;;;;;;;;;6.69;100.00;101478.31;5552724;32;33430;-72
2023/01/01 13:05:38;;;;;;;;;;;;;;;6.70;100.00;101474.75;5552397;32;33049;-71
2023/01/01 13:08:50;;;;;;;;;;;;;;;6.43;100.00;101483.78;5555894;32;33758;-70
2023/01/01 13:12:06;;;;;;;;;;;;;;;6.08;100.00;101472.34;5542382;32;35162;-71
2023/01/01 13:15:31;;;;;;;;;;;;;;;6.18;100.00;101480.44;5569229;32;34028;-72
2023/01/01 13:18:38;;;;;;;;;;;;;;;6.12;100.00;101479.06;5555678;32;34278;-70
2023/01/01 13:21:46;;;;;;;;;;;;;;;6.23;100.00;101494.09;5568791;32;34272;-70
2023/01/01 13:25:06;;;;;;;;;;;;;;;6.07;100.00;101489.97;5542596;32;32961;-71
2023/01/01 13:28:18;;;;;;;;;;;;;;;6.08;100.00;101493.44;5542811;32;32579;-71
2023/01/01 13:31:40;;;;;;;;;;;;;;;6.04;100.00;101494.63;5566259;31;34900;-71
2023/01/01 13:34:59;;;;;;;;;;;;;;;5.96;100.00;101489.88;5580711;31;33847;-71
2023/01/01 13:38:03;;;;;;;;;;;;;;;6.04;100.00;101497.25;5568829;32;34254;-71
2023/01/01 13:41:28;;;;;;;;;;;;;;;5.94;100.00;101496.22;5554752;32;34206;-71
2023/01/01 13:44:36;;;;;;;;;;;;;;;6.05;100.00;101493.66;5554343;32;34716;-72
2023/01/01 13:47:50;;;;;;;;;;;;;;;6.16;100.00;101495.50;5568718;32;34417;-72
2023/01/01 13:51:20;;;;;;;;;;;;;;;6.17;100.00;101502.44;5555457;32;35024;-72
2023/01/01 13:55:03;;;;;;;;;;;;;;;6.25;100.00;101500.09;5544307;32;33078;-72
2023/01/01 13:58:31;;;;;;;;;;;;;;;6.14;100.00;101498.25;5542173;32;33342;-72
2023/01/01 14:01:48;;;;;;;;;;;;;;;6.08;100.00;101515.34;5568507;32;34295;-71
2023/01/01 14:04:58;;;;;;;;;;;;;;;6.10;100.00;101516.06;5541859;32;32619;-72
2023/01/01 14:08:04;;;;;;;;;;;;;;;6.25;100.00;101516.75;5568051;32;35441;-71
2023/01/01 14:11:23;;;;;;;;;;;;;;;6.23;100.00;101516.03;5567783;32;35558;-71
2023/01/01 14:14:29;;;;;;;;;;;;;;;6.08;100.00;101520.63;5567477;32;32677;-72
2023/01/01 14:17:34;;;;;;;;;;;;;;;5.96;100.00;101526.75;5567496;32;34501;-72
2023/01/01 14:20:41;;;;;;;;;;;;;;;5.89;100.00;101522.91;5567448;32;34037;-72
2023/01/01 14:23:51;;;;;;;;;;;;;;;5.96;100.00;101516.22;5567590;32;34194;-71
2023/01/01 14:26:56;;;;;;;;;;;;;;;6.01;100.00;101516.72;5554449;32;35278;-72
2023/01/01 14:30:03;;;;;;;;;;;;;;;6.03;100.00;101516.62;5560208;32;32865;-71
2023/01/01 14:33:19;;;;;;;;;;;;;;;6.08;100.00;101514.50;5554699;32;34939;-72
2023/01/01 14:36:26;;;;;;;;;;;;;;;6.08;100.00;101511.87;5541570;32;34113;-72
2023/01/01 14:39:33;;;;;;;;;;;;;;;6.09;100.00;101519.69;5554538;32;34338;-72
2023/01/01 14:42:39;;;;;;;;;;;;;;;6.12;100.00;101529.97;5554083;32;34337;-72
2023/01/01 14:45:48;;;;;;;;;;;;;;;6.14;100.00;101527.25;5554630;32;34255;-72
2023/01/01 14:49:07;;;;;;;;;;;;;;;6.08;100.00;101533.78;5567956;32;34283;-72
2023/01/01 14:52:21;;;;;;;;;;;;;;;6.13;100.00;101528.19;5567830;32;34794;-72
2023/01/01 14:55:31;;;;;;;;;;;;;;;6.18;100.00;101531.34;5568136;32;34329;-72
2023/01/01 14:58:40;;;;;;;;;;;;;;;6.19;100.00;101532.19;5554028;32;35650;-74
2023/01/01 15:01:46;;;;;;;;;;;;;;;6.29;100.00;101520.88;5541124;32;32884;-72
2023/01/01 15:04:57;;;;;;;;;;;;;;;6.20;100.00;101518.03;5552993;32;34395;-71
2023/01/01 15:08:07;;;;;;;;;;;;;;;6.15;100.00;101518.37;5565708;32;34912;-71
2023/01/01 15:11:14;;;;;;;;;;;;;;;6.24;100.00;101520.34;5553053;32;33245;-72
2023/01/01 15:14:29;;;;;;;;;;;;;;;6.20;100.00;101524.13;5553602;32;34369;-72
2023/01/01 15:17:44;;;;;;;;;;;;;;;6.17;100.00;101524.38;5528635;32;34341;-74
2023/01/01 15:20:52;;;;;;;;;;;;;;;6.36;100.00;101531.78;5553838;32;33272;-71
2023/01/01 15:23:58;;;;;;;;;;;;;;;6.18;100.00;101530.50;5567690;32;35120;-72
2023/01/01 15:27:05;;;;;;;;;;;;;;;6.27;100.00;101532.44;5554096;32;34332;-72
2023/01/01 15:30:28;;;;;;;;;;;;;;;6.28;100.00;101529.72;5554348;32;34450;-70
2023/01/01 15:33:33;;;;;;;;;;;;;;;6.37;100.00;101539.56;5553428;32;33366;-72
2023/01/01 15:36:39;;;;;;;;;;;;;;;6.33;100.00;101550.47;5550776;32;34109;-71
2023/01/01 15:39:47;;;;;;;;;;;;;;;6.33;100.00;101547.81;5566673;32;34684;-71
2023/01/01 15:42:55;;;;;;;;;;;;;;;6.27;100.00;101546.47;5567079;32;34796;-71
2023/01/01 15:46:19;;;;;;;;;;;;;;;6.35;100.00;101559.91;5567660;32;34809;-72
2023/01/01 15:49:32;;;;;;;;;;;;;;;6.34;100.00;101566.13;5553857;32;34243;-72
2023/01/01 15:52:42;;;;;;;;;;;;;;;6.35;100.00;101557.28;5567262;32;34741;-72
2023/01/01 15:55:59;;;;;;;;;;;;;;;6.44;100.00;101561.88;5554563;32;33890;-72
2023/01/01 15:59:07;;;;;;;;;;;;;;;6.33;100.00;101559.22;5566311;32;35646;-72
2023/01/01 16:02:18;;;;;;;;;;;;;;;6.30;100.00;101555.94;5553334;32;33870;-72
2023/01/01 16:05:25;;;;;;;;;;;;;;;6.38;100.00;101551.81;5553683;32;33405;-71
2023/01/01 16:08:36;;;;;;;;;;;;;;;6.48;100.00;101571.28;5534421;32;34202;-73
2023/01/01 16:11:44;;;;;;;;;;;;;;;6.51;100.00;101572.81;5547190;32;34710;-73
2023/01/01 16:14:51;;;;;;;;;;;;;;;6.43;100.00;101562.84;5546923;32;33574;-73
2023/01/01 16:17:59;;;;;;;;;;;;;;;6.50;100.00;101566.72;5533668;32;33122;-73
2023/01/01 16:21:08;;;;;;;;;;;;;;;6.62;100.00;101567.62;5547826;32;34124;-73